createdAt,value
2018-10-16T00:00:41.229Z,878.10
2018-10-16T00:03:09.227Z,997.03
2018-10-16T00:05:37.017Z,655.80
2018-10-16T00:08:04.899Z,852.23
2018-10-16T00:10:39.275Z,861.93
2018-10-16T00:13:08.252Z,817.50
2018-10-16T00:15:36.143Z,999.90
2018-10-16T00:18:04.456Z,999.90
2018-10-16T00:20:32.334Z,886.93
2018-10-16T00:23:00.215Z,999.90
2018-10-16T00:25:28.139Z,592.80
2018-10-16T00:27:56.008Z,993.47
2018-10-16T00:30:23.903Z,826.43
2018-10-16T00:32:51.775Z,999.90
2018-10-16T00:35:19.655Z,861.43
2018-10-16T00:37:47.514Z,999.90
2018-10-16T00:40:15.386Z,976.93
2018-10-16T00:42:43.265Z,818.97
2018-10-16T00:45:11.691Z,861.73
2018-10-16T00:47:39.820Z,999.90
2018-10-16T00:50:07.977Z,999.90
2018-10-16T00:52:36.041Z,845.47
2018-10-16T00:55:04.294Z,829.93
2018-10-16T00:57:32.109Z,855.57
2018-10-16T00:59:59.989Z,866.10
2018-10-16T01:02:27.871Z,837.50
2018-10-16T01:04:55.766Z,839.23
2018-10-16T01:07:23.674Z,983.20
2018-10-16T01:09:51.571Z,998.53
2018-10-16T01:12:19.455Z,987.47
2018-10-16T01:14:47.342Z,999.90
2018-10-16T01:17:15.197Z,989.10
2018-10-16T01:19:43.079Z,991.10
2018-10-16T01:22:10.946Z,991.07
2018-10-16T01:24:38.842Z,990.97
2018-10-16T01:27:06.707Z,999.90
2018-10-16T01:29:34.601Z,999.90
2018-10-16T01:32:02.483Z,999.90
2018-10-16T01:34:30.363Z,999.90
2018-10-16T01:36:58.233Z,999.90
2018-10-16T01:39:26.094Z,999.90
2018-10-16T01:41:53.978Z,983.20
2018-10-16T01:44:21.845Z,999.90
2018-10-16T01:46:49.714Z,989.83
2018-10-16T01:49:17.583Z,974.07
2018-10-16T01:51:45.459Z,853.43
2018-10-16T01:54:13.331Z,506.40
2018-10-16T01:56:41.215Z,849.20
2018-10-16T01:59:09.091Z,999.90
2018-10-16T02:01:37.079Z,999.90
2018-10-16T02:04:04.950Z,999.90
2018-10-16T02:06:32.827Z,999.90
2018-10-16T02:09:00.685Z,982.00
2018-10-16T02:11:28.553Z,982.83
2018-10-16T02:13:56.423Z,757.40
2018-10-16T02:16:24.310Z,861.13
2018-10-16T02:18:52.303Z,999.90
2018-10-16T02:21:20.174Z,774.60
2018-10-16T02:23:48.044Z,997.17
2018-10-16T02:26:15.919Z,999.90
2018-10-16T02:28:43.794Z,999.90
2018-10-16T02:31:11.691Z,999.90
2018-10-16T02:33:39.651Z,995.63
2018-10-16T02:36:07.535Z,999.90
2018-10-16T02:38:35.415Z,999.90
2018-10-16T02:41:03.297Z,992.57
2018-10-16T02:43:31.165Z,970.67
2018-10-16T02:45:59.042Z,851.00
2018-10-16T02:48:26.919Z,999.90
2018-10-16T02:50:54.800Z,999.90
2018-10-16T02:53:22.673Z,997.37
2018-10-16T02:55:50.559Z,999.90
2018-10-16T02:58:18.434Z,999.40
2018-10-16T03:00:46.306Z,908.30
2018-10-16T03:03:14.182Z,995.67
2018-10-16T03:05:42.071Z,999.90
2018-10-16T03:08:09.944Z,994.17
2018-10-16T03:10:37.851Z,994.90
2018-10-16T03:13:05.731Z,999.90
2018-10-16T03:15:33.602Z,999.90
2018-10-16T03:18:01.558Z,999.90
2018-10-16T03:20:29.444Z,989.60
2018-10-16T03:22:57.318Z,999.07
2018-10-16T03:25:25.188Z,859.87
2018-10-16T03:27:53.064Z,996.67
2018-10-16T03:30:20.968Z,999.90
2018-10-16T03:32:48.966Z,999.90
2018-10-16T03:35:16.848Z,999.90
2018-10-16T03:37:44.727Z,999.90
2018-10-16T03:40:12.825Z,968.90
2018-10-16T03:42:41.590Z,984.90
2018-10-16T03:45:10.807Z,999.90
2018-10-16T03:47:39.160Z,999.90
2018-10-16T03:50:07.260Z,998.07
2018-10-16T03:52:35.219Z,999.90
2018-10-16T03:55:03.109Z,999.90
2018-10-16T03:57:31.022Z,999.90
2018-10-16T03:59:59.128Z,987.93
2018-10-16T04:02:27.018Z,999.90
2018-10-16T04:04:54.920Z,798.60
2018-10-16T04:07:22.915Z,999.90
2018-10-16T04:09:50.790Z,964.47
2018-10-16T04:12:18.799Z,999.90
2018-10-16T04:14:46.690Z,976.53
2018-10-16T04:17:15.492Z,999.90
2018-10-16T04:19:43.348Z,964.63
2018-10-16T04:22:11.215Z,999.33
2018-10-16T04:24:39.066Z,999.90
2018-10-16T04:27:06.931Z,999.90
2018-10-16T04:29:34.791Z,999.90
2018-10-16T04:32:02.644Z,993.87
2018-10-16T04:34:30.486Z,999.90
2018-10-16T04:36:58.344Z,999.90
2018-10-16T04:39:26.186Z,999.90
2018-10-16T04:41:54.057Z,996.07
2018-10-16T04:44:21.907Z,999.90
2018-10-16T04:46:49.763Z,999.90
2018-10-16T04:49:17.614Z,999.90
2018-10-16T04:51:45.474Z,999.90
2018-10-16T04:54:13.335Z,999.90
2018-10-16T04:56:41.190Z,978.23
2018-10-16T04:59:09.050Z,999.73
2018-10-16T05:01:36.898Z,928.20
2018-10-16T05:04:04.970Z,999.90
2018-10-16T05:06:32.780Z,857.83
2018-10-16T05:09:00.629Z,979.47
2018-10-16T05:11:28.487Z,999.90
2018-10-16T05:13:56.346Z,999.90
2018-10-16T05:16:24.186Z,999.90
2018-10-16T05:18:52.058Z,999.90
2018-10-16T05:21:19.945Z,985.73
2018-10-16T05:23:47.780Z,983.80
2018-10-16T05:26:15.627Z,996.93
2018-10-16T05:28:43.491Z,999.23
2018-10-16T05:31:11.675Z,999.90
2018-10-16T05:33:39.461Z,999.90
2018-10-16T05:36:07.547Z,999.03
2018-10-16T05:38:35.389Z,999.90
2018-10-16T05:41:03.237Z,999.90
2018-10-16T05:43:31.100Z,975.40
2018-10-16T05:45:59.043Z,995.70
2018-10-16T05:48:26.899Z,999.90
2018-10-16T05:50:54.746Z,980.13
2018-10-16T05:53:22.626Z,999.90
2018-10-16T05:55:54.970Z,999.90
2018-10-16T05:58:22.828Z,999.90
2018-10-16T06:00:50.676Z,999.90
2018-10-16T06:03:18.526Z,999.90
2018-10-16T06:05:52.957Z,963.20
2018-10-16T06:08:20.819Z,991.53
2018-10-16T06:10:48.723Z,999.90
2018-10-16T06:13:16.542Z,957.87
2018-10-16T06:15:44.406Z,872.93
2018-10-16T06:18:12.274Z,893.27
2018-10-16T06:20:40.115Z,999.90
2018-10-16T06:23:07.987Z,999.90
2018-10-16T06:25:35.836Z,999.90
2018-10-16T06:28:10.223Z,910.83
2018-10-16T06:30:38.088Z,999.90
2018-10-16T06:33:05.996Z,999.90
2018-10-16T06:35:33.831Z,999.90
2018-10-16T06:38:01.678Z,999.90
2018-10-16T06:40:29.628Z,999.90
2018-10-16T06:42:57.410Z,999.90
2018-10-16T06:45:25.290Z,831.87
2018-10-16T06:47:53.171Z,999.43
2018-10-16T06:50:21.013Z,655.10
2018-10-16T06:52:48.866Z,412.40
2018-10-16T06:55:16.766Z,401.27
2018-10-16T06:57:44.593Z,769.77
2018-10-16T07:00:12.457Z,999.90
2018-10-16T07:02:40.322Z,982.90
2018-10-16T07:05:08.447Z,999.90
2018-10-16T07:07:36.315Z,999.90
2018-10-16T07:10:04.645Z,999.90
2018-10-16T07:12:32.506Z,999.90
2018-10-16T07:17:34.660Z,999.90
2018-10-16T07:20:02.548Z,999.90
2018-10-16T07:22:30.395Z,999.90
2018-10-16T07:24:58.258Z,999.90
2018-10-16T07:27:26.112Z,764.83
2018-10-16T07:29:54.017Z,574.03
2018-10-16T07:32:21.871Z,999.90
2018-10-16T07:34:49.730Z,989.77
2018-10-16T07:37:17.577Z,892.57
2018-10-16T07:39:45.450Z,533.80
2018-10-16T07:42:13.315Z,850.33
2018-10-16T07:44:41.173Z,649.60
2018-10-16T07:47:09.117Z,939.93
2018-10-16T07:49:36.963Z,896.67
2018-10-16T07:52:04.818Z,933.77
2018-10-16T07:54:32.688Z,858.43
2018-10-16T07:57:00.569Z,865.50
2018-10-16T07:59:28.443Z,999.90
2018-10-16T08:01:56.355Z,784.27
2018-10-16T08:04:24.228Z,976.77
2018-10-16T08:06:52.074Z,785.63
2018-10-16T08:09:19.930Z,446.00
2018-10-16T08:11:49.035Z,387.60
2018-10-16T08:14:17.978Z,784.17
2018-10-16T08:16:47.228Z,558.57
2018-10-16T08:19:15.408Z,485.63
2018-10-16T08:21:43.982Z,799.13
2018-10-16T08:24:11.854Z,799.13
2018-10-16T08:26:40.030Z,847.30
2018-10-16T08:29:08.402Z,999.90
2018-10-16T08:31:36.349Z,994.40
2018-10-16T08:34:04.659Z,999.90
2018-10-16T08:36:32.910Z,999.90
2018-10-16T08:39:02.399Z,999.90
2018-10-16T08:41:36.527Z,999.90
2018-10-16T08:44:10.077Z,999.90
2018-10-16T08:46:43.639Z,999.90
2018-10-16T08:49:17.107Z,999.90
2018-10-16T08:51:50.128Z,992.37
2018-10-16T08:54:18.135Z,999.90
2018-10-16T08:56:46.231Z,999.90
2018-10-16T08:59:14.115Z,999.90
2018-10-16T09:01:41.974Z,997.73
2018-10-16T09:04:09.923Z,999.90
2018-10-16T09:06:37.845Z,999.90
2018-10-16T09:09:08.432Z,720.77
2018-10-16T09:11:36.294Z,736.83
2018-10-16T09:14:04.293Z,721.03
2018-10-16T09:16:32.107Z,411.13
2018-10-16T09:18:59.966Z,639.53
2018-10-16T09:21:27.814Z,258.00
2018-10-16T09:23:55.661Z,184.17
2018-10-16T09:26:23.546Z,186.53
2018-10-16T09:28:51.427Z,181.43
2018-10-16T09:31:19.284Z,212.43
2018-10-16T09:33:47.130Z,359.07
2018-10-16T09:36:14.975Z,518.80
2018-10-16T09:38:42.828Z,359.60
2018-10-16T09:41:10.674Z,172.07
2018-10-16T09:43:38.516Z,211.97
2018-10-16T09:46:06.363Z,144.47
2018-10-16T09:48:34.215Z,140.13
2018-10-16T09:51:02.063Z,61.07
2018-10-16T09:53:29.915Z,98.53
2018-10-16T09:55:57.757Z,79.17
2018-10-16T09:58:25.764Z,36.17
2018-10-16T10:00:59.210Z,204.07
2018-10-16T10:03:27.019Z,42.50
2018-10-16T10:05:54.951Z,37.57
2018-10-16T10:08:22.809Z,54.87
2018-10-16T10:10:50.659Z,247.23
2018-10-16T10:13:18.544Z,40.17
2018-10-16T10:15:46.400Z,33.17
2018-10-16T10:18:14.234Z,21.97
2018-10-16T10:20:42.076Z,27.43
2018-10-16T10:23:09.978Z,22.13
2018-10-16T10:25:37.799Z,22.27
2018-10-16T10:28:05.682Z,21.03
2018-10-16T10:30:33.551Z,21.37
2018-10-16T10:33:01.430Z,23.60
2018-10-16T10:35:29.326Z,26.67
2018-10-16T10:37:57.178Z,23.33
2018-10-16T10:40:25.036Z,36.57
2018-10-16T10:42:52.898Z,28.17
2018-10-16T10:45:20.952Z,22.30
2018-10-16T10:47:48.990Z,29.87
2018-10-16T10:50:17.166Z,21.37
2018-10-16T10:52:47.131Z,21.97
2018-10-16T10:55:14.988Z,27.53
2018-10-16T10:57:42.874Z,23.07
2018-10-16T11:00:11.987Z,25.57
2018-10-16T11:02:40.577Z,22.80
2018-10-16T11:05:09.656Z,28.23
2018-10-16T11:07:37.527Z,21.17
2018-10-16T11:10:05.774Z,22.60
2018-10-16T11:12:33.639Z,23.97
2018-10-16T11:15:01.528Z,18.43
2018-10-16T11:17:29.400Z,22.10
2018-10-16T11:19:57.251Z,25.43
2018-10-16T11:22:25.112Z,28.47
2018-10-16T11:24:52.972Z,60.20
2018-10-16T11:27:20.844Z,158.97
2018-10-16T11:29:48.723Z,97.37
2018-10-16T11:32:16.626Z,143.43
2018-10-16T11:34:44.455Z,61.10
2018-10-16T11:37:12.319Z,47.37
2018-10-16T11:39:40.201Z,211.60
2018-10-16T11:42:08.063Z,190.03
2018-10-16T11:44:35.935Z,90.07
2018-10-16T11:47:03.803Z,201.20
2018-10-16T11:49:31.658Z,43.47
2018-10-16T11:51:59.546Z,48.00
2018-10-16T11:54:27.378Z,152.73
2018-10-16T11:56:55.238Z,113.63
2018-10-16T11:59:23.140Z,51.53
2018-10-16T12:01:50.990Z,41.57
2018-10-16T12:04:18.835Z,22.93
2018-10-16T12:06:46.692Z,32.20
2018-10-16T12:09:14.558Z,26.27
2018-10-16T12:11:42.412Z,21.20
2018-10-16T12:14:10.332Z,18.27
2018-10-16T12:16:48.800Z,19.00
2018-10-16T12:19:22.367Z,19.90
2018-10-16T12:21:50.222Z,19.40
2018-10-16T12:24:18.085Z,38.70
2018-10-16T12:26:45.939Z,28.43
2018-10-16T12:29:13.809Z,24.77
2018-10-16T12:31:41.660Z,19.80
2018-10-16T12:34:09.504Z,19.63
2018-10-16T12:36:37.534Z,23.87
2018-10-16T12:39:06.988Z,21.57
2018-10-16T12:41:34.838Z,18.63
2018-10-16T12:44:02.703Z,19.70
2018-10-16T12:46:30.546Z,21.67
2018-10-16T12:48:58.452Z,24.67
2018-10-16T12:51:26.296Z,16.60
2018-10-16T12:53:54.148Z,20.17
2018-10-16T12:56:21.988Z,19.20
2018-10-16T12:58:49.829Z,16.07
2018-10-16T13:01:17.662Z,15.57
2018-10-16T13:03:45.580Z,16.90
2018-10-16T13:06:13.471Z,20.17
2018-10-16T13:08:41.316Z,18.87
2018-10-16T13:11:09.185Z,22.73
2018-10-16T13:13:37.032Z,20.10
2018-10-16T13:16:04.928Z,17.37
2018-10-16T13:18:32.733Z,21.83
2018-10-16T13:21:00.596Z,19.07
2018-10-16T13:23:28.441Z,18.03
2018-10-16T13:25:56.291Z,21.87
2018-10-16T13:28:24.144Z,23.23
2018-10-16T13:30:51.999Z,19.43
2018-10-16T13:33:19.855Z,18.47
2018-10-16T13:35:47.711Z,22.53
2018-10-16T13:38:15.581Z,18.10
2018-10-16T13:40:43.430Z,18.77
2018-10-16T13:43:11.295Z,21.77
2018-10-16T13:45:39.155Z,45.00
2018-10-16T13:48:07.005Z,28.83
2018-10-16T13:50:34.885Z,23.20
2018-10-16T13:53:02.751Z,62.67
2018-10-16T13:55:30.625Z,87.33
2018-10-16T13:57:58.544Z,108.77
2018-10-16T14:00:26.367Z,54.43
2018-10-16T14:02:54.227Z,23.07
2018-10-16T14:05:22.098Z,24.50
2018-10-16T14:07:49.953Z,42.63
2018-10-16T14:10:18.190Z,51.43
2018-10-16T14:12:47.080Z,431.90
2018-10-16T14:15:15.473Z,540.13
2018-10-16T14:17:43.332Z,536.77
2018-10-16T14:20:11.510Z,649.03
2018-10-16T14:22:40.420Z,680.57
2018-10-16T14:25:09.195Z,684.77
2018-10-16T14:27:37.347Z,275.97
2018-10-16T14:30:05.908Z,242.73
2018-10-16T14:32:33.760Z,447.70
2018-10-16T14:35:01.636Z,413.80
2018-10-16T14:37:29.571Z,811.27
2018-10-16T14:39:57.488Z,730.17
2018-10-16T14:42:25.327Z,659.00
2018-10-16T14:44:53.193Z,801.33
2018-10-16T14:47:21.059Z,556.47
2018-10-16T14:49:48.923Z,536.50
2018-10-16T14:52:16.864Z,446.10
2018-10-16T14:54:44.743Z,508.40
2018-10-16T14:57:12.737Z,598.83
2018-10-16T14:59:40.934Z,540.80
2018-10-16T15:02:09.023Z,707.97
2018-10-16T15:04:37.220Z,719.47
2018-10-16T15:07:05.191Z,671.43
2018-10-16T15:09:33.138Z,999.90
2018-10-16T15:12:01.043Z,999.90
2018-10-16T15:14:28.906Z,999.90
2018-10-16T15:16:56.924Z,999.90
2018-10-16T15:19:24.832Z,999.90
2018-10-16T15:21:52.709Z,999.90
2018-10-16T15:24:21.996Z,999.90
2018-10-16T15:26:49.925Z,999.90
2018-10-16T15:29:17.797Z,999.90
2018-10-16T15:31:45.671Z,999.90
2018-10-16T15:34:13.588Z,999.90
2018-10-16T15:36:41.481Z,999.90
2018-10-16T15:39:10.602Z,999.90
2018-10-16T15:41:38.666Z,999.90
2018-10-16T15:44:07.672Z,999.90
2018-10-16T15:46:36.050Z,999.90
2018-10-16T15:54:14.642Z,999.90
2018-10-16T15:56:42.472Z,999.90
2018-10-16T15:59:10.318Z,999.90
2018-10-16T16:01:38.216Z,999.90
2018-10-16T16:04:06.112Z,999.90
2018-10-16T16:06:33.933Z,999.90
2018-10-16T16:09:01.788Z,999.90
2018-10-16T16:11:29.679Z,999.90
2018-10-16T16:13:57.557Z,999.90
2018-10-16T16:16:25.505Z,999.90
2018-10-16T16:18:53.371Z,999.90
2018-10-16T16:21:21.222Z,999.90
2018-10-16T16:23:49.107Z,999.90
2018-10-16T16:26:17.022Z,999.90
2018-10-16T16:28:44.981Z,999.90
2018-10-16T16:31:12.911Z,999.90
2018-10-16T16:33:40.795Z,999.90
2018-10-16T16:36:08.747Z,999.90
2018-10-16T16:38:36.536Z,999.90
2018-10-16T16:41:04.455Z,999.90
2018-10-16T16:43:32.456Z,999.90
2018-10-16T16:46:00.298Z,999.90
2018-10-16T16:48:28.093Z,999.90
2018-10-16T16:50:56.053Z,999.90
2018-10-16T16:53:23.928Z,999.90
2018-10-16T16:55:51.829Z,999.90
2018-10-16T16:58:19.755Z,999.90
2018-10-16T17:00:47.604Z,999.90
2018-10-16T17:03:15.506Z,999.90
2018-10-16T17:05:43.471Z,999.90
2018-10-16T17:08:11.383Z,999.90
2018-10-16T17:10:39.646Z,999.90
2018-10-16T17:13:07.500Z,999.90
2018-10-16T17:15:35.351Z,999.90
2018-10-16T17:18:03.215Z,999.90
2018-10-16T17:20:31.068Z,999.90
2018-10-16T17:22:58.927Z,999.90
2018-10-16T17:25:27.049Z,999.90
2018-10-16T17:27:54.712Z,999.90
2018-10-16T17:30:22.531Z,999.90
2018-10-16T17:32:50.411Z,999.90
2018-10-16T17:35:18.268Z,999.90
2018-10-16T17:37:46.147Z,999.90
2018-10-16T17:40:15.560Z,999.90
2018-10-16T17:42:43.596Z,999.90
2018-10-16T17:45:12.987Z,999.90
2018-10-16T17:47:40.881Z,999.90
2018-10-16T17:50:11.034Z,999.90
2018-10-16T17:52:39.149Z,999.90
2018-10-16T17:55:07.544Z,999.90
2018-10-16T17:57:35.601Z,999.90
2018-10-16T18:00:03.725Z,999.90
2018-10-16T18:02:31.659Z,999.90
2018-10-16T18:04:59.517Z,999.90
2018-10-16T18:07:27.428Z,999.90
2018-10-16T18:09:55.276Z,999.90
2018-10-16T18:12:23.135Z,999.90
2018-10-16T18:14:51.033Z,999.90
2018-10-16T18:17:18.890Z,999.90
2018-10-16T18:19:46.743Z,999.90
2018-10-16T18:22:14.594Z,999.90
2018-10-16T18:24:42.475Z,999.90
2018-10-16T18:27:10.457Z,999.90
2018-10-16T18:29:38.466Z,999.90
2018-10-16T18:32:06.283Z,932.00
2018-10-16T18:34:34.237Z,991.23
2018-10-16T18:37:02.081Z,995.17
2018-10-16T18:39:29.969Z,996.10
2018-10-16T18:41:57.876Z,999.90
2018-10-16T18:44:25.817Z,999.90
2018-10-16T18:46:53.617Z,999.90
2018-10-16T18:49:21.471Z,999.90
2018-10-16T18:51:49.346Z,999.90
2018-10-16T18:54:17.265Z,999.90
2018-10-16T18:56:45.063Z,999.90
2018-10-16T18:59:12.919Z,999.90
2018-10-16T19:01:40.764Z,999.90
2018-10-16T19:04:09.020Z,999.90
2018-10-16T19:06:36.868Z,999.90
2018-10-16T19:09:06.838Z,999.90
2018-10-16T19:11:34.679Z,999.90
2018-10-16T19:14:02.621Z,999.90
2018-10-16T19:16:30.399Z,999.90
2018-10-16T19:18:58.248Z,999.90
2018-10-16T19:21:26.083Z,999.90
2018-10-16T19:23:54.025Z,999.90
2018-10-16T19:26:21.880Z,999.90
2018-10-16T19:28:49.744Z,999.90
2018-10-16T19:31:17.607Z,999.90
2018-10-16T19:33:45.916Z,999.90
2018-10-16T19:36:13.832Z,999.90
2018-10-16T19:38:41.690Z,999.90
2018-10-16T19:41:09.611Z,999.90
2018-10-16T19:43:37.466Z,999.90
2018-10-16T19:46:05.326Z,999.90
2018-10-16T19:48:33.215Z,999.90
2018-10-16T19:51:01.127Z,999.90
2018-10-16T19:53:29.115Z,999.90
2018-10-16T19:55:57.001Z,999.90
2018-10-16T19:58:24.859Z,999.90
2018-10-16T20:00:52.793Z,999.90
2018-10-16T20:03:20.732Z,999.90
2018-10-16T20:05:48.591Z,999.90
2018-10-16T20:08:16.871Z,999.90
2018-10-16T20:10:44.985Z,999.90
2018-10-16T20:13:12.818Z,999.90
2018-10-16T20:15:40.741Z,999.90
2018-10-16T20:18:08.547Z,999.90
2018-10-16T20:20:36.478Z,999.90
2018-10-16T20:23:04.411Z,999.90
2018-10-16T20:25:32.287Z,999.90
2018-10-16T20:28:00.136Z,999.90
2018-10-16T20:30:28.010Z,999.90
2018-10-16T20:32:55.936Z,999.90
2018-10-16T20:35:23.815Z,999.90
2018-10-16T20:37:51.673Z,999.90
2018-10-16T20:40:19.626Z,999.90
2018-10-16T20:42:47.483Z,999.90
2018-10-16T20:45:15.354Z,999.90
2018-10-16T20:50:17.698Z,999.90
2018-10-16T20:52:45.558Z,999.90
2018-10-16T20:55:13.609Z,999.90
2018-10-16T20:57:41.325Z,999.90
2018-10-16T21:00:09.335Z,999.90
2018-10-16T21:02:37.654Z,999.90
2018-10-16T21:05:06.038Z,999.90
2018-10-16T21:07:33.791Z,999.90
2018-10-16T21:10:01.728Z,999.90
2018-10-16T21:12:29.623Z,999.90
2018-10-16T21:14:57.475Z,999.90
2018-10-16T21:17:25.338Z,999.90
2018-10-16T21:19:53.295Z,999.90
2018-10-16T21:22:21.137Z,999.90
2018-10-16T21:24:48.986Z,999.90
2018-10-16T21:27:16.837Z,999.90
2018-10-16T21:29:44.685Z,999.90
2018-10-16T21:32:13.051Z,999.90
2018-10-16T21:34:40.894Z,999.90
2018-10-16T21:37:08.807Z,999.90
2018-10-16T21:39:36.589Z,999.90
2018-10-16T21:42:04.453Z,999.90
2018-10-16T21:44:32.296Z,999.90
2018-10-16T21:47:00.180Z,999.90
2018-10-16T21:49:28.002Z,999.90
2018-10-16T21:51:55.849Z,999.90
2018-10-16T21:54:23.685Z,999.90
2018-10-16T21:56:51.537Z,999.90
2018-10-16T21:59:19.435Z,999.90
2018-10-16T22:01:52.854Z,999.90
2018-10-16T22:04:20.690Z,999.90
2018-10-16T22:06:48.742Z,999.90
2018-10-16T22:09:16.583Z,999.90
2018-10-16T22:11:44.429Z,999.90
2018-10-16T22:14:12.299Z,999.90
2018-10-16T22:16:40.158Z,999.90
2018-10-16T22:19:08.300Z,999.90
2018-10-16T22:21:36.134Z,999.90
2018-10-16T22:24:03.986Z,999.90
2018-10-16T22:26:31.924Z,999.90
2018-10-16T22:29:00.210Z,999.90
2018-10-16T22:31:28.286Z,999.90
2018-10-16T22:33:56.170Z,999.90
2018-10-16T22:36:24.274Z,999.90
2018-10-16T22:38:52.110Z,999.90
2018-10-16T22:41:20.202Z,999.90
2018-10-16T22:43:48.054Z,999.90
2018-10-16T22:46:15.913Z,999.90
2018-10-16T22:48:43.755Z,999.90
2018-10-16T22:51:11.615Z,999.90
2018-10-16T22:53:39.456Z,999.90
2018-10-16T22:56:07.815Z,999.90
2018-10-16T22:58:35.697Z,999.90
2018-10-16T23:01:03.590Z,999.90
2018-10-16T23:03:31.437Z,999.90
2018-10-16T23:05:59.288Z,999.90
2018-10-16T23:08:27.139Z,999.90
2018-10-16T23:10:55.008Z,999.90
2018-10-16T23:13:22.854Z,999.90
2018-10-16T23:15:50.699Z,999.90
2018-10-16T23:18:18.557Z,999.90
2018-10-16T23:20:46.406Z,999.90
2018-10-16T23:23:14.364Z,999.90
2018-10-16T23:25:42.185Z,999.90
2018-10-16T23:28:10.042Z,999.90
2018-10-16T23:30:37.901Z,999.90
2018-10-16T23:33:05.755Z,999.90
2018-10-16T23:35:33.602Z,999.90
2018-10-16T23:38:01.458Z,999.90
2018-10-16T23:40:29.311Z,999.90
2018-10-16T23:42:57.184Z,999.90
2018-10-16T23:45:25.029Z,999.90
2018-10-16T23:47:52.886Z,999.90
2018-10-16T23:50:20.721Z,999.90
2018-10-16T23:52:48.577Z,999.90
2018-10-16T23:55:16.483Z,999.90
2018-10-16T23:57:44.298Z,999.90
